Time;durP1;ratioP1;P1;durP2;ratioP2;P2;SDS_P1;SDS_P2;PMS_P1;PMS_P2;Temp;Humidity;BMP_temperature;BMP_pressure;BME280_temperature;BME280_humidity;BME280_pressure;Samples;Min_cycle;Max_cycle;Signal;HPM_P1;HPM_P2
2022/03/11 00:02:25;;;;;;;1999.90;999.90;;;;;;;-4.20;74.70;161284.03;5049893;28;20053;-68
2022/03/11 00:04:52;;;;;;;1999.90;999.90;;;;;;;-3.99;74.05;161341.28;5036756;28;20430;-68
2022/03/11 00:07:18;;;;;;;1999.90;999.90;;;;;;;-4.13;74.09;161304.47;5049128;28;20045;-68
2022/03/11 00:09:45;;;;;;;1999.90;999.90;;;;;;;-4.51;74.87;161203.66;5044727;28;20057;-68
2022/03/11 00:12:11;;;;;;;1999.90;999.90;;;;;;;-4.38;74.97;161237.69;5035136;28;20400;-68
2022/03/11 00:14:38;;;;;;;1999.90;999.90;;;;;;;-4.23;74.43;161275.84;5048166;28;20441;-68
2022/03/11 00:17:04;;;;;;;1999.90;999.90;;;;;;;-3.65;72.51;161429.88;5039759;28;20111;-69
2022/03/11 00:19:31;;;;;;;1999.90;999.90;;;;;;;-3.95;73.05;161352.16;5049159;28;20055;-68
2022/03/11 00:21:58;;;;;;;1999.90;999.90;;;;;;;-4.17;74.02;161293.56;5037444;28;20049;-68
2022/03/11 00:24:24;;;;;;;1999.90;999.90;;;;;;;-4.07;73.22;161319.47;5040473;28;20052;-69
2022/03/11 00:26:52;;;;;;;1999.90;999.90;;;;;;;-3.49;71.97;161473.50;5047701;28;20126;-69
2022/03/11 00:29:19;;;;;;;1999.90;999.90;;;;;;;-3.67;72.24;161425.78;5035294;28;20048;-69
2022/03/11 00:31:46;;;;;;;1999.90;999.90;;;;;;;-3.52;71.28;161465.31;5048325;28;20057;-69
2022/03/11 00:34:12;;;;;;;1999.90;999.90;;;;;;;-3.40;71.46;161496.69;5067402;28;20139;-69
2022/03/11 00:36:40;;;;;;;1999.90;999.90;;;;;;;-3.23;69.89;161541.66;5044611;28;20041;-69
2022/03/11 00:39:08;;;;;;;1999.90;999.90;;;;;;;-4.04;72.56;161326.28;5034471;28;20053;-68
2022/03/11 00:41:34;;;;;;;1999.90;999.90;;;;;;;-4.26;74.52;161270.44;5047672;28;20110;-69
2022/03/11 00:44:01;;;;;;;1999.90;999.90;;;;;;;-3.93;72.91;161356.25;5047554;28;20044;-69
2022/03/11 00:46:28;;;;;;;1999.90;999.90;;;;;;;-4.43;74.64;161225.44;5021363;28;20045;-68
2022/03/11 00:48:55;;;;;;;1999.90;999.90;;;;;;;-4.43;75.68;161224.09;5042919;28;20131;-68
2022/03/11 00:51:21;;;;;;;1999.90;999.90;;;;;;;-4.48;75.81;161210.44;5034501;28;20465;-68
2022/03/11 00:53:48;;;;;;;1999.90;999.90;;;;;;;-3.65;72.49;161429.88;5043541;28;20041;-68
2022/03/11 00:56:14;;;;;;;1999.90;999.90;;;;;;;-4.02;73.38;161333.13;5038284;28;20045;-69
2022/03/11 00:58:41;;;;;;;1999.90;999.90;;;;;;;-4.48;74.92;161210.44;5047120;28;20053;-68
2022/03/11 01:01:07;;;;;;;1999.90;999.90;;;;;;;-4.53;75.47;161198.19;5047566;28;20064;-69
2022/03/11 01:03:34;;;;;;;1999.90;999.90;;;;;;;-4.52;76.00;161199.56;5037397;28;20053;-68
2022/03/11 01:06:00;;;;;;;1999.90;999.90;;;;;;;-4.31;75.51;161256.78;5043119;28;20166;-67
2022/03/11 01:08:27;;;;;;;1999.90;999.90;;;;;;;-4.50;76.34;161205.00;5031644;28;20068;-68
2022/03/11 01:10:53;;;;;;;1999.90;999.90;;;;;;;-4.35;75.14;161244.50;5047738;28;20323;-68
2022/03/11 01:13:20;;;;;;;1999.90;999.90;;;;;;;-4.38;75.36;161237.69;5042849;28;20444;-67
2022/03/11 01:15:46;;;;;;;1999.90;999.90;;;;;;;-4.50;76.04;161205.00;5040875;28;20365;-68
2022/03/11 01:18:13;;;;;;;1999.90;999.90;;;;;;;-4.60;76.67;161180.50;5046932;28;20057;-67
2022/03/11 01:20:40;;;;;;;1999.90;999.90;;;;;;;-4.82;76.98;161120.56;5031479;28;20330;-67
2022/03/11 01:23:06;;;;;;;1999.90;999.90;;;;;;;-4.84;77.76;161115.09;5047294;28;20481;-67
2022/03/11 01:25:33;;;;;;;1999.90;999.90;;;;;;;-4.96;78.39;161083.75;5037437;28;20429;-67
2022/03/11 01:27:59;;;;;;;1999.90;999.90;;;;;;;-4.92;78.24;161093.31;5047830;28;20201;-67
2022/03/11 01:30:26;;;;;;;1999.90;999.90;;;;;;;-4.98;78.79;161079.69;5036257;28;20064;-67
2022/03/11 01:32:53;;;;;;;1999.90;999.90;;;;;;;-5.22;79.30;161014.34;5034705;28;20452;-66
2022/03/11 01:35:20;;;;;;;1999.90;999.90;;;;;;;-5.23;79.76;161011.59;5043204;28;20049;-67
2022/03/11 01:37:46;;;;;;;1999.90;999.90;;;;;;;-5.17;80.02;161027.94;5037306;28;20061;-67
2022/03/11 01:40:13;;;;;;;1999.90;999.90;;;;;;;-5.15;79.75;161034.75;5047460;28;20445;-66
2022/03/11 01:42:39;;;;;;;1999.90;999.90;;;;;;;-5.29;79.76;160995.28;5039074;28;20512;-66
2022/03/11 01:45:06;;;;;;;1999.90;999.90;;;;;;;-5.23;80.37;161012.94;5046955;28;20579;-67
2022/03/11 01:47:33;;;;;;;1999.90;999.90;;;;;;;-5.11;79.77;161044.28;5042394;28;20061;-67
2022/03/11 01:50:00;;;;;;;1999.90;999.90;;;;;;;-5.00;79.78;161072.84;5033534;28;20053;-67
2022/03/11 01:52:27;;;;;;;1999.90;999.90;;;;;;;-5.11;79.57;161044.28;5046333;28;20298;-67
2022/03/11 01:54:53;;;;;;;1999.90;999.90;;;;;;;-4.79;78.63;161130.09;5035654;28;20057;-67
2022/03/11 01:57:20;;;;;;;1999.90;999.90;;;;;;;-4.91;78.98;161096.00;5051994;28;20268;-67
2022/03/11 01:59:46;;;;;;;1999.90;999.90;;;;;;;-4.92;79.14;161093.31;5040684;28;20356;-67
2022/03/11 02:02:13;;;;;;;1999.90;999.90;;;;;;;-4.50;76.96;161206.34;5046641;28;20064;-67
2022/03/11 02:04:40;;;;;;;1999.90;999.90;;;;;;;-4.12;75.70;161305.84;5044190;28;20294;-67
2022/03/11 02:07:08;;;;;;;1999.90;999.90;;;;;;;-4.46;75.95;161215.91;5039555;28;20353;-67
2022/03/11 02:09:34;;;;;;;1999.90;999.90;;;;;;;-4.90;77.44;161100.09;5039856;28;20564;-67
2022/03/11 02:12:01;;;;;;;1999.90;999.90;;;;;;;-5.35;79.82;160981.63;5033502;28;20060;-67
2022/03/11 02:14:28;;;;;;;1999.90;999.90;;;;;;;-4.99;79.15;161077.00;5051386;28;20060;-67
2022/03/11 02:16:54;;;;;;;1999.90;999.90;;;;;;;-4.96;78.38;161085.16;5034433;28;20327;-66
2022/03/11 02:19:23;;;;;;;1999.90;999.90;;;;;;;-4.99;78.20;161075.59;5042567;28;20383;-67
2022/03/11 02:21:53;;;;;;;1999.90;999.90;;;;;;;-4.74;76.99;161141.00;5045760;28;20053;-67
2022/03/11 02:24:20;;;;;;;1999.90;999.90;;;;;;;-4.76;78.30;161136.91;5031759;28;20041;-67
2022/03/11 02:26:47;;;;;;;1999.90;999.90;;;;;;;-5.11;79.05;161044.28;5028862;28;20076;-67
2022/03/11 02:29:13;;;;;;;1999.90;999.90;;;;;;;-4.97;78.70;161081.06;5032743;28;20053;-67
2022/03/11 02:31:40;;;;;;;1999.90;999.90;;;;;;;-4.75;77.89;161138.25;5053420;28;20059;-67
2022/03/11 02:34:07;;;;;;;1999.90;999.90;;;;;;;-5.36;79.36;160978.94;5038384;28;20107;-66
2022/03/11 02:36:33;;;;;;;1999.90;999.90;;;;;;;-5.35;79.71;160981.63;5045142;28;20049;-67
2022/03/11 02:39:00;;;;;;;1999.90;999.90;;;;;;;-5.22;79.58;161015.69;5046625;28;20300;-67
2022/03/11 02:41:27;;;;;;;1999.90;999.90;;;;;;;-5.61;81.04;160912.22;5036011;28;20442;-67
2022/03/11 02:43:54;;;;;;;1999.90;999.90;;;;;;;-5.77;81.13;160870.03;5040480;28;20049;-67
2022/03/11 02:46:21;;;;;;;1999.90;999.90;;;;;;;-5.64;81.50;160904.06;5032122;28;20128;-67
2022/03/11 02:48:48;;;;;;;1999.90;999.90;;;;;;;-5.77;81.13;160868.69;5046055;28;20063;-67
2022/03/11 02:51:14;;;;;;;1999.90;999.90;;;;;;;-5.49;81.02;160944.88;5056591;28;20048;-67
2022/03/11 02:53:42;;;;;;;1999.90;999.90;;;;;;;-5.60;80.96;160914.91;5034009;28;20053;-67
2022/03/11 02:56:10;;;;;;;1999.90;999.90;;;;;;;-5.46;80.79;160950.31;5044878;28;20079;-67
2022/03/11 02:58:38;;;;;;;1999.90;999.90;;;;;;;-5.69;81.12;160891.78;5032302;28;20060;-66
2022/03/11 03:01:04;;;;;;;1999.90;999.90;;;;;;;-5.57;81.44;160921.75;5049756;28;20055;-67
2022/03/11 03:03:31;;;;;;;1999.90;999.90;;;;;;;-5.70;81.73;160887.69;5039058;28;20080;-67
2022/03/11 03:05:58;;;;;;;1999.90;999.90;;;;;;;-5.85;82.49;160848.22;5054206;28;20087;-68
2022/03/11 03:08:25;;;;;;;1999.90;999.90;;;;;;;-5.87;83.01;160842.81;5049736;28;20060;-67
2022/03/11 03:10:52;;;;;;;1999.90;999.90;;;;;;;-5.95;82.92;160822.41;5035773;28;20397;-67
2022/03/11 03:13:18;;;;;;;1999.90;999.90;;;;;;;-5.66;82.44;160899.97;5045827;28;20063;-67
2022/03/11 03:15:45;;;;;;;1999.90;999.90;;;;;;;-5.66;81.85;160899.97;5040997;28;20049;-67
2022/03/11 03:18:11;;;;;;;1999.90;999.90;;;;;;;-5.87;83.15;160842.81;5048854;28;20445;-67
2022/03/11 03:20:38;;;;;;;1999.90;999.90;;;;;;;-5.53;82.15;160932.66;5037771;28;20057;-67
2022/03/11 03:23:05;;;;;;;1999.90;999.90;;;;;;;-5.54;81.60;160931.28;5041684;28;20045;-67
2022/03/11 03:25:31;;;;;;;1999.90;999.90;;;;;;;-5.60;81.79;160913.56;5045585;28;20044;-67
2022/03/11 03:27:58;;;;;;;1999.90;999.90;;;;;;;-5.60;80.84;160913.56;5036590;28;20450;-67
2022/03/11 03:30:24;;;;;;;1999.90;999.90;;;;;;;-5.74;81.97;160878.19;5050082;28;20056;-67
2022/03/11 03:32:51;;;;;;;1999.90;999.90;;;;;;;-5.72;81.67;160883.63;5040432;28;20057;-67
2022/03/11 03:35:18;;;;;;;1999.90;999.90;;;;;;;-5.43;80.68;160958.47;5049328;28;20055;-67
2022/03/11 03:37:44;;;;;;;1999.90;999.90;;;;;;;-5.04;79.29;161063.34;5039129;28;20045;-67
2022/03/11 03:40:11;;;;;;;1999.90;999.90;;;;;;;-4.95;79.04;161086.50;5044969;28;20052;-67
2022/03/11 03:42:38;;;;;;;1999.90;999.90;;;;;;;-5.23;79.30;161012.94;5044363;28;20045;-67
2022/03/11 03:45:06;;;;;;;1999.90;999.90;;;;;;;-5.52;80.39;160935.38;5036825;28;20071;-67
2022/03/11 03:47:33;;;;;;;1999.90;999.90;;;;;;;-5.31;79.44;160991.19;5046168;28;20049;-67
2022/03/11 03:49:59;;;;;;;1999.90;999.90;;;;;;;-5.34;79.64;160984.38;5045772;28;20059;-67
2022/03/11 03:52:27;;;;;;;1999.90;999.90;;;;;;;-5.44;80.26;160957.13;5047630;28;20728;-67
2022/03/11 03:54:55;;;;;;;1999.90;999.90;;;;;;;-5.63;80.80;160905.41;5040643;28;20131;-67
2022/03/11 03:57:22;;;;;;;1999.90;999.90;;;;;;;-5.53;80.85;160932.66;5051270;28;20357;-67
2022/03/11 03:59:48;;;;;;;1999.90;999.90;;;;;;;-5.05;79.47;161059.25;5049995;28;20052;-67
2022/03/11 04:02:15;;;;;;;1999.90;999.90;;;;;;;-4.84;77.95;161115.09;5041053;28;20057;-67
2022/03/11 04:04:42;;;;;;;1999.90;999.90;;;;;;;-4.79;77.32;161128.75;5049550;28;20098;-67
2022/03/11 04:07:08;;;;;;;1999.90;999.90;;;;;;;-5.25;77.69;161006.19;5040888;28;20079;-67
2022/03/11 04:09:35;;;;;;;1999.90;999.90;;;;;;;-4.61;76.80;161177.75;5038042;28;20194;-67
2022/03/11 04:12:02;;;;;;;1999.90;999.90;;;;;;;-4.32;75.23;161252.69;5044042;28;20041;-67
2022/03/11 04:14:28;;;;;;;1999.90;999.90;;;;;;;-4.28;75.33;161264.94;5048028;28;20449;-67
2022/03/11 04:16:56;;;;;;;1999.90;999.90;;;;;;;-4.57;75.79;161187.31;5048228;28;20051;-67
2022/03/11 04:19:23;;;;;;;1999.90;999.90;;;;;;;-4.07;74.22;161319.47;5039960;28;20144;-67
2022/03/11 04:21:49;;;;;;;1999.90;999.90;;;;;;;-4.47;74.50;161213.19;5043983;28;20049;-67
2022/03/11 04:24:17;;;;;;;1999.90;999.90;;;;;;;-4.25;74.34;161273.13;5034690;28;20057;-67
2022/03/11 04:26:44;;;;;;;1999.90;999.90;;;;;;;-3.90;72.97;161364.41;5048415;28;20048;-67
2022/03/11 04:29:12;;;;;;;1999.90;999.90;;;;;;;-4.38;74.94;161237.69;5045406;28;20052;-67
2022/03/11 04:31:39;;;;;;;1999.90;999.90;;;;;;;-4.78;76.28;161131.44;5047925;28;20067;-67
2022/03/11 04:34:06;;;;;;;1999.90;999.90;;;;;;;-4.45;75.26;161220.00;5047389;28;20053;-67
2022/03/11 04:36:38;;;;;;;1999.90;999.90;;;;;;;-3.85;73.27;161376.72;5035004;28;20715;-67
2022/03/11 04:39:06;;;;;;;1999.90;999.90;;;;;;;-3.53;71.40;161462.59;5046362;28;20099;-67
2022/03/11 04:41:34;;;;;;;1999.90;999.90;;;;;;;-3.52;71.24;161465.31;5032278;28;20078;-67
2022/03/11 04:44:02;;;;;;;1999.90;999.90;;;;;;;-3.94;72.45;161354.91;5048755;28;20345;-68
2022/03/11 04:46:29;;;;;;;1999.90;999.90;;;;;;;-4.13;72.29;161303.13;5037086;28;20052;-67
2022/03/11 04:48:56;;;;;;;1999.90;999.90;;;;;;;-4.05;72.69;161324.91;5043949;28;20146;-68
2022/03/11 04:51:22;;;;;;;1999.90;999.90;;;;;;;-4.05;72.63;161323.56;5041697;28;20084;-68
2022/03/11 04:53:53;;;;;;;1999.90;999.90;;;;;;;-4.33;73.75;161251.34;5037147;28;20060;-68
2022/03/11 04:56:19;;;;;;;1999.90;999.90;;;;;;;-4.45;73.66;161218.59;5045900;28;20548;-68
2022/03/11 04:58:46;;;;;;;1999.90;999.90;;;;;;;-4.79;75.94;161130.09;5037073;28;20663;-68
2022/03/11 05:01:13;;;;;;;1999.90;999.90;;;;;;;-4.77;76.15;161134.16;5047064;28;20063;-67
2022/03/11 05:03:39;;;;;;;1999.90;999.90;;;;;;;-5.12;77.18;161041.59;5034192;28;20252;-67
2022/03/11 05:06:09;;;;;;;1999.90;999.90;;;;;;;-4.84;77.14;161115.09;5050215;28;20116;-67
2022/03/11 05:08:36;;;;;;;1999.90;999.90;;;;;;;-4.87;76.12;161106.91;5047454;28;20060;-68
2022/03/11 05:11:04;;;;;;;1999.90;999.90;;;;;;;-4.86;76.08;161111.00;5036305;28;20080;-68
2022/03/11 05:13:31;;;;;;;1999.90;999.90;;;;;;;-4.74;76.14;161141.00;5045847;28;20069;-68
2022/03/11 05:15:57;;;;;;;1999.90;999.90;;;;;;;-5.23;78.26;161012.94;5035109;28;20053;-68
2022/03/11 05:18:25;;;;;;;1999.90;999.90;;;;;;;-5.95;80.57;160821.06;5038421;28;20056;-67
2022/03/11 05:20:52;;;;;;;1999.90;999.90;;;;;;;-5.89;81.13;160837.38;5022466;28;20068;-67
2022/03/11 05:23:18;;;;;;;1999.90;999.90;;;;;;;-6.14;82.13;160770.75;5038270;28;20385;-67
2022/03/11 05:25:45;;;;;;;1999.90;999.90;;;;;;;-5.40;80.08;160966.69;5031422;28;20049;-67
2022/03/11 05:28:12;;;;;;;1999.90;999.90;;;;;;;-5.08;78.37;161051.09;5024912;28;20445;-68
2022/03/11 05:30:38;;;;;;;1999.90;999.90;;;;;;;-4.54;76.62;161195.50;5027260;28;20422;-68
2022/03/11 05:33:05;;;;;;;1999.90;999.90;;;;;;;-4.39;75.68;161235.00;5013388;28;20056;-67
2022/03/11 05:35:32;;;;;;;1999.90;999.90;;;;;;;-4.16;74.42;161294.94;5035762;28;20056;-67
2022/03/11 05:37:59;;;;;;;1999.90;999.90;;;;;;;-3.90;73.64;161364.41;5044163;28;20056;-67
2022/03/11 05:40:26;;;;;;;1999.90;999.90;;;;;;;-4.38;75.05;161237.69;5037910;28;20049;-68
2022/03/11 05:42:53;;;;;;;1999.90;999.90;;;;;;;-4.31;74.54;161256.78;5045423;28;20052;-65
2022/03/11 05:45:20;;;;;;;1999.90;999.90;;;;;;;-4.91;77.46;161096.00;5028901;28;20048;-65
2022/03/11 05:47:46;;;;;;;1999.90;999.90;;;;;;;-4.75;77.73;161139.59;5040497;28;20372;-65
2022/03/11 05:50:13;;;;;;;1999.90;999.90;;;;;;;-4.46;76.81;161215.91;5034241;28;20052;-65
2022/03/11 05:52:41;;;;;;;1999.90;999.90;;;;;;;-4.12;74.82;161307.22;5042893;28;20503;-65
2022/03/11 05:55:09;;;;;;;1999.90;999.90;;;;;;;-4.03;74.14;161330.38;5045487;28;20057;-66
2022/03/11 05:57:36;;;;;;;1999.90;999.90;;;;;;;-4.06;74.74;161322.22;5041364;28;20508;-67
2022/03/11 06:00:07;;;;;;;1999.90;999.90;;;;;;;-4.09;74.87;161314.03;5038884;28;20048;-66
2022/03/11 06:02:38;;;;;;;1999.90;999.90;;;;;;;-4.43;75.23;161225.44;5040564;28;20402;-67
2022/03/11 06:05:08;;;;;;;1999.90;999.90;;;;;;;-4.02;75.49;161333.13;5054329;28;20056;-67
2022/03/11 06:07:35;;;;;;;1999.90;999.90;;;;;;;-4.10;75.40;161312.63;5039435;28;20355;-66
2022/03/11 06:10:02;;;;;;;1999.90;999.90;;;;;;;-3.67;74.27;161425.78;5038905;28;20478;-67
2022/03/11 06:12:29;;;;;;;1999.90;999.90;;;;;;;-4.51;75.21;161203.66;5036809;28;20049;-67
2022/03/11 06:14:55;;;;;;;1999.90;999.90;;;;;;;-3.84;74.16;161380.81;5037595;28;20053;-67
2022/03/11 06:17:22;;;;;;;1999.90;999.90;;;;;;;-4.22;75.10;161278.59;5044367;28;20041;-67
2022/03/11 06:19:48;;;;;;;1999.90;999.90;;;;;;;-3.68;73.30;161421.69;5036400;28;20268;-67
2022/03/11 06:22:15;;;;;;;1999.90;999.90;;;;;;;-3.78;73.00;161397.19;5046357;28;20045;-67
2022/03/11 06:24:42;;;;;;;1999.90;999.90;;;;;;;-4.01;74.41;161335.81;5038064;28;20052;-66
2022/03/11 06:27:08;;;;;;;1999.90;999.90;;;;;;;-3.73;72.88;161409.44;5038867;28;20595;-67
2022/03/11 06:29:35;;;;;;;1999.90;999.90;;;;;;;-3.86;73.58;161374.00;5031381;28;20115;-66
2022/03/11 06:32:01;;;;;;;1999.90;999.90;;;;;;;-3.92;74.32;161360.34;5043524;28;20053;-66
2022/03/11 06:34:29;;;;;;;1999.90;999.90;;;;;;;-3.92;74.10;161360.34;5046189;28;20056;-67
2022/03/11 06:36:56;;;;;;;1999.90;999.90;;;;;;;-3.71;73.57;161414.88;5034838;28;20440;-67
2022/03/11 06:39:23;;;;;;;1999.90;999.90;;;;;;;-2.89;71.02;161633.09;5045835;28;20064;-67
2022/03/11 06:41:49;;;;;;;1999.90;999.90;;;;;;;-3.44;72.55;161487.16;5024706;28;20057;-66
2022/03/11 06:44:18;;;;;;;1999.90;999.90;;;;;;;-3.60;73.02;161444.88;5041642;28;20056;-66
2022/03/11 06:46:44;;;;;;;1999.90;999.90;;;;;;;-3.93;73.81;161357.66;5040212;28;20347;-66
2022/03/11 06:49:11;;;;;;;1999.90;999.90;;;;;;;-3.85;73.59;161376.72;5047220;28;20437;-67
2022/03/11 06:51:38;;;;;;;1999.90;999.90;;;;;;;-3.57;73.11;161453.06;5046414;28;20071;-67
2022/03/11 06:54:07;;;;;;;1999.90;999.90;;;;;;;-3.02;71.88;161597.63;5034800;28;20051;-67
2022/03/11 06:56:35;;;;;;;1999.90;999.90;;;;;;;-2.97;70.39;161611.25;5041311;28;20090;-67
2022/03/11 06:59:03;;;;;;;1999.90;999.90;;;;;;;-2.37;68.42;161769.50;5032760;28;20430;-67
2022/03/11 07:01:30;;;;;;;1999.90;999.90;;;;;;;-2.39;68.67;161764.06;5049126;28;20048;-68
2022/03/11 07:03:57;;;;;;;1999.90;999.90;;;;;;;-2.20;67.73;161815.91;5061884;28;20079;-70
2022/03/11 07:06:24;;;;;;;1999.90;999.90;;;;;;;-2.22;67.40;161810.47;5039548;28;20052;-68
2022/03/11 07:08:50;;;;;;;1999.90;999.90;;;;;;;-2.27;67.64;161796.81;5036284;28;20718;-69
2022/03/11 07:11:17;;;;;;;1999.90;999.90;;;;;;;-2.39;67.77;161765.41;5025787;28;20065;-69
2022/03/11 07:13:44;;;;;;;1999.90;999.90;;;;;;;-2.35;67.76;161775.00;5040357;28;20061;-69
2022/03/11 07:16:10;;;;;;;1999.90;999.90;;;;;;;-2.14;66.68;161830.94;5031175;28;20334;-69
2022/03/11 07:18:37;;;;;;;1999.90;999.90;;;;;;;-1.56;64.55;161985.22;5040208;28;20453;-69
2022/03/11 07:21:04;;;;;;;1999.90;999.90;;;;;;;-1.61;63.07;161971.53;5026490;28;20068;-69
2022/03/11 07:23:30;;;;;;;1999.90;999.90;;;;;;;-1.56;63.68;161983.81;5030580;28;20052;-69
2022/03/11 07:25:57;;;;;;;1999.90;999.90;;;;;;;-2.30;64.66;161788.63;5035601;28;20561;-67
2022/03/11 07:28:27;;;;;;;1999.90;999.90;;;;;;;-1.91;63.79;161891.00;5028852;28;20065;-67
2022/03/11 07:30:53;;;;;;;1999.90;999.90;;;;;;;-1.64;61.91;161964.75;5040653;28;20136;-68
2022/03/11 07:33:20;;;;;;;1999.90;999.90;;;;;;;-1.40;61.71;162027.50;5031260;28;20453;-68
2022/03/11 07:35:47;;;;;;;1999.90;999.90;;;;;;;-1.96;63.73;161878.72;5046009;28;20060;-68
2022/03/11 07:38:14;;;;;;;1999.90;999.90;;;;;;;-1.48;61.89;162007.03;5040654;28;20053;-68
2022/03/11 07:40:40;;;;;;;1999.90;999.90;;;;;;;-1.48;61.59;162007.03;5030982;28;20448;-69
2022/03/11 07:43:09;;;;;;;1999.90;999.90;;;;;;;-1.65;62.14;161960.63;5046096;28;20053;-69
2022/03/11 07:45:36;;;;;;;1999.90;999.90;;;;;;;-1.55;61.27;161987.91;5039612;28;20072;-69
2022/03/11 07:48:02;;;;;;;1999.90;999.90;;;;;;;-1.82;61.76;161915.56;5046561;28;20064;-69
2022/03/11 07:50:29;;;;;;;1999.90;999.90;;;;;;;-1.11;59.78;162105.38;5029320;28;20136;-69
2022/03/11 07:52:56;;;;;;;1999.90;999.90;;;;;;;-0.79;59.16;162190.09;5035964;28;20617;-69
2022/03/11 07:55:22;;;;;;;1999.90;999.90;;;;;;;-0.49;57.51;162267.97;5048770;28;20066;-70
2022/03/11 07:57:49;;;;;;;1999.90;999.90;;;;;;;0.14;56.18;162436.13;5039363;28;20366;-70
2022/03/11 08:00:16;;;;;;;1999.90;999.90;;;;;;;0.21;55.21;162455.25;5048322;28;20044;-70
2022/03/11 08:02:43;;;;;;;1999.90;999.90;;;;;;;-0.36;55.01;162303.50;5049117;28;20426;-69
2022/03/11 08:05:14;;;;;;;1999.90;999.90;;;;;;;0.32;52.48;162485.31;5044978;28;20044;-69
2022/03/11 08:07:45;;;;;;;;;;;;;;;1.06;50.29;162680.94;5028851;28;20451;-70
2022/03/11 08:10:12;;;;;;;1999.90;999.90;;;;;;;0.40;52.13;162504.47;5048652;28;20202;-69
2022/03/11 08:12:39;;;;;;;1999.90;999.90;;;;;;;0.20;53.40;162451.16;5048445;28;20491;-67
2022/03/11 08:15:06;;;;;;;1999.90;999.90;;;;;;;-0.21;54.90;162343.13;5042557;28;20441;-67
2022/03/11 08:17:33;;;;;;;1999.90;999.90;;;;;;;0.66;53.08;162575.59;5047293;28;20451;-69
2022/03/11 08:20:00;;;;;;;1999.90;999.90;;;;;;;0.25;52.38;162464.81;5033447;28;20052;-67
2022/03/11 08:22:27;;;;;;;1999.90;999.90;;;;;;;0.03;53.07;162406.00;5043972;28;20476;-67
2022/03/11 08:24:53;;;;;;;1999.90;999.90;;;;;;;-0.47;52.97;162274.81;5038166;28;20061;-67
2022/03/11 08:27:20;;;;;;;1999.90;999.90;;;;;;;0.17;52.11;162444.31;5048737;28;20053;-67
2022/03/11 08:29:46;;;;;;;1999.90;999.90;;;;;;;1.07;50.08;162682.28;5048158;28;20060;-67
2022/03/11 08:32:13;;;;;;;1999.90;999.90;;;;;;;1.30;51.05;162745.25;5036130;28;20306;-68
2022/03/11 08:34:39;;;;;;;1999.90;999.90;;;;;;;1.61;48.87;162827.38;5041177;28;20175;-68
2022/03/11 08:37:21;;;;;;;1999.90;999.90;;;;;;;1.51;47.85;162801.34;5035013;28;20107;-67
2022/03/11 08:39:48;;;;;;;1999.90;999.90;;;;;;;1.03;48.35;162672.75;5048118;28;20377;-67
2022/03/11 08:42:14;;;;;;;1999.90;999.90;;;;;;;1.88;46.03;162898.56;5035625;28;20400;-67
2022/03/11 08:44:41;;;;;;;1999.90;999.90;;;;;;;0.90;46.67;162638.53;5047513;28;20057;-66
2022/03/11 08:47:08;;;;;;;1999.90;999.90;;;;;;;-0.26;49.64;162329.47;5035095;28;20397;-67
2022/03/11 08:49:35;;;;;;;1999.90;999.90;;;;;;;1.33;47.15;162753.44;5042230;28;20135;-68
2022/03/11 08:52:02;;;;;;;1999.90;999.90;;;;;;;1.25;46.20;162731.59;5047701;28;20055;-67
2022/03/11 08:54:29;;;;;;;1999.90;999.90;;;;;;;1.19;46.06;162715.13;5038452;28;20446;-67
2022/03/11 08:56:55;;;;;;;1999.90;999.90;;;;;;;1.26;46.74;162734.28;5048379;28;20052;-67
2022/03/11 08:59:22;;;;;;;1999.90;999.90;;;;;;;1.86;42.96;162893.06;5038004;28;20365;-67
2022/03/11 09:01:48;;;;;;;1999.90;999.90;;;;;;;1.82;44.07;162882.13;5043199;28;20053;-68
2022/03/11 09:04:15;;;;;;;1999.90;999.90;;;;;;;2.49;42.11;163060.09;5043832;28;20061;-67
2022/03/11 09:06:42;;;;;;;1999.90;999.90;;;;;;;3.34;40.88;163288.91;5042171;28;20049;-67
2022/03/11 09:09:09;;;;;;;1999.90;999.90;;;;;;;2.90;41.99;163171.06;5046252;28;20056;-68
2022/03/11 09:11:36;;;;;;;1999.90;999.90;;;;;;;3.20;40.33;163249.16;5034754;28;20412;-68
2022/03/11 09:14:03;;;;;;;1999.90;999.90;;;;;;;2.10;42.23;162958.78;5046750;28;20057;-67
2022/03/11 09:16:31;;;;;;;1999.90;999.90;;;;;;;1.64;42.06;162834.19;5016526;28;20068;-67
2022/03/11 09:18:59;;;;;;;1999.90;999.90;;;;;;;1.30;42.98;162743.91;5043577;28;20044;-67
2022/03/11 09:21:28;;;;;;;1999.90;999.90;;;;;;;2.27;40.91;163002.59;5047220;28;20076;-67
2022/03/11 09:23:54;;;;;;;1999.90;999.90;;;;;;;2.05;39.68;162945.06;5035971;28;20454;-67
2022/03/11 09:26:21;;;;;;;1999.90;999.90;;;;;;;2.23;39.04;162993.03;5046573;28;20045;-67
2022/03/11 09:29:07;;;;;;;1999.90;999.90;;;;;;;1.98;38.35;162924.53;5028045;28;20056;-67
2022/03/11 09:31:34;;;;;;;1999.90;999.90;;;;;;;3.51;37.24;163334.16;5038133;28;20060;-67
2022/03/11 09:34:06;;;;;;;1999.90;999.90;;;;;;;4.07;35.71;163482.22;5037516;28;20053;-67
2022/03/11 09:36:33;;;;;;;1999.90;999.90;;;;;;;1.94;38.28;162914.97;5047123;28;20057;-67
2022/03/11 09:38:59;;;;;;;1999.90;999.90;;;;;;;2.02;37.50;162936.84;5041867;28;20052;-67
2022/03/11 09:41:29;;;;;;;1999.90;999.90;;;;;;;2.99;35.53;163194.34;5041177;28;20086;-67
2022/03/11 09:43:56;;;;;;;1999.90;999.90;;;;;;;3.18;35.24;163246.41;5034718;28;20046;-67
2022/03/11 09:46:25;;;;;;;1999.90;999.90;;;;;;;2.79;36.18;163140.94;5033240;28;20180;-67
2022/03/11 09:48:52;;;;;;;1999.90;999.90;;;;;;;3.87;35.14;163430.13;5045665;28;20437;-68
2022/03/11 09:51:25;;;;;;;1999.90;999.90;;;;;;;3.85;33.15;163424.59;5034362;28;20135;-67
2022/03/11 09:53:52;;;;;;;1999.90;999.90;;;;;;;3.10;35.86;163223.16;5045680;28;20135;-67
2022/03/11 09:56:20;;;;;;;1999.90;999.90;;;;;;;2.37;37.79;163030.00;5040586;28;20067;-67
2022/03/11 09:58:47;;;;;;;1999.90;999.90;;;;;;;2.38;36.24;163031.34;5034656;28;20055;-66
2022/03/11 10:01:13;;;;;;;1999.90;999.90;;;;;;;2.30;33.53;163010.81;5046606;28;20076;-67
2022/03/11 10:03:40;;;;;;;1999.90;999.90;;;;;;;2.60;33.91;163090.25;5043742;28;20152;-67
2022/03/11 10:06:07;;;;;;;1999.90;999.90;;;;;;;2.56;34.53;163079.28;5058699;28;20361;-67
2022/03/11 10:08:36;;;;;;;1999.90;999.90;;;;;;;4.22;32.59;163523.31;5033336;28;20053;-68
2022/03/11 10:11:23;;;;;;;1999.90;999.90;;;;;;;3.34;31.95;163287.56;5041580;28;20053;-67
2022/03/11 10:13:51;;;;;;;1999.90;999.90;;;;;;;2.77;33.18;163135.44;5026462;28;20056;-68
2022/03/11 10:16:22;;;;;;;1999.90;999.90;;;;;;;3.50;32.80;163331.41;5044345;28;20056;-68
2022/03/11 10:19:06;;;;;;;1999.90;999.90;;;;;;;4.03;30.57;163471.22;5031301;28;20256;-66
2022/03/11 10:21:37;;;;;;;1999.90;999.90;;;;;;;4.16;29.41;163506.88;5044240;28;20055;-67
2022/03/11 10:24:10;;;;;;;1999.90;999.90;;;;;;;3.82;29.55;163415.03;5045687;28;20352;-67
2022/03/11 10:26:47;;;;;;;1999.90;999.90;;;;;;;3.22;30.94;163254.69;5029115;28;20059;-67
2022/03/11 10:29:20;;;;;;;1999.90;999.90;;;;;;;3.76;31.43;163399.94;5043936;28;20045;-67
2022/03/11 10:31:50;;;;;;;1999.90;999.90;;;;;;;2.99;31.54;163194.34;5036251;28;20064;-67
2022/03/11 10:34:29;;;;;;;1999.90;999.90;;;;;;;3.02;33.37;163202.56;5046620;28;20060;-67
2022/03/11 10:37:04;;;;;;;1999.90;999.90;;;;;;;3.28;31.44;163272.47;5034608;28;20060;-67
2022/03/11 10:39:38;;;;;;;1999.90;999.90;;;;;;;4.75;29.77;163663.25;5033862;28;20442;-68
2022/03/11 10:42:24;;;;;;;1999.90;999.90;;;;;;;5.89;27.72;163966.53;5033898;28;20185;-67
2022/03/11 10:45:06;;;;;;;1999.90;999.90;;;;;;;5.07;27.88;163749.66;5046117;28;20040;-67
2022/03/11 10:47:38;;;;;;;1999.90;999.90;;;;;;;4.44;29.24;163579.53;5044806;28;20063;-67
2022/03/11 10:50:07;;;;;;;1999.90;999.90;;;;;;;3.68;28.78;163378.03;5035909;28;20083;-67
2022/03/11 10:52:37;;;;;;;1999.90;999.90;;;;;;;3.30;29.40;163277.94;5044709;28;20057;-67